• 1385014 10153382300060425 128216538 n
  • 3
  • 6
  • 7
  • 1
  • 10
  • 未命名
  • 121
  • 55
  • 2
  • cargo

Click here and log in to see your monthly flight duties. 請按此登入個人班表區

Welcome aboard

Current Weather

[source: ADDS]
METAR
RCTP 042030Z 17003KT 9999 FEW020 BKN160 26/23 Q1010 NOSIG RMK A2985 =
TAF
TAF RCTP 041700Z 0418/0524 22005KT 9999 FEW020 TEMPO 0420/0424 3500 BR BECMG 0500/0502 24010KT TEMPO 0503/0509 27015KT BECMG 0518/0520 24015KT =